Terminal Aerodrome Forecast
Issued by NWS

Home | Current Version | Previous Version | Text Only | Print | Product List | Glossary On
Versions: 1 2 3 4 5 6 7 8 9 10 11 12 13 14 15 16 17 18
774
FTUS43 KEAX 161735
TAFSTJ
TAF
KSTJ 161735Z 1618/1718 17013KT P6SM SCT035
     FM162000 22007KT P6SM VCTS BKN070CB
      TEMPO 1621/1623 VRB20G35KT 2SM TS BKN025CB OVC040
     FM170300 24012KT P6SM OVC200
     FM171500 29009KT P6SM SCT150=

USA.gov is the U.S. government's official web portal to all federal, state and local government web resources and services.